sensor_id;sensor_type;location;lat;lon;timestamp;pressure;altitude;pressure_sealevel;temperature;humidity
68889;BME280;55930;47.412;8.790;2023-05-23T00:00:45;94472.25;;;13.13;100.00
68889;BME280;55930;47.412;8.790;2023-05-23T00:04:07;94467.72;;;13.19;100.00
68889;BME280;55930;47.412;8.790;2023-05-23T00:07:28;94471.69;;;13.40;100.00
68889;BME280;55930;47.412;8.790;2023-05-23T00:10:48;94470.78;;;13.49;100.00
68889;BME280;55930;47.412;8.790;2023-05-23T00:14:12;94471.47;;;13.01;100.00
68889;BME280;55930;47.412;8.790;2023-05-23T00:17:33;94474.84;;;13.01;100.00
68889;BME280;55930;47.412;8.790;2023-05-23T00:20:56;94478.06;;;13.11;100.00
68889;BME280;55930;47.412;8.790;2023-05-23T00:24:16;94466.50;;;13.14;100.00
68889;BME280;55930;47.412;8.790;2023-05-23T00:27:37;94468.88;;;13.12;100.00
68889;BME280;55930;47.412;8.790;2023-05-23T00:30:58;94467.97;;;13.21;100.00
68889;BME280;55930;47.412;8.790;2023-05-23T00:34:18;94463.66;;;13.29;100.00
68889;BME280;55930;47.412;8.790;2023-05-23T00:37:38;94459.53;;;13.33;100.00
68889;BME280;55930;47.412;8.790;2023-05-23T00:41:00;94468.00;;;13.26;100.00
68889;BME280;55930;47.412;8.790;2023-05-23T00:44:21;94466.31;;;13.29;100.00
68889;BME280;55930;47.412;8.790;2023-05-23T00:47:41;94468.97;;;13.29;100.00
68889;BME280;55930;47.412;8.790;2023-05-23T00:51:02;94474.09;;;13.32;100.00
68889;BME280;55930;47.412;8.790;2023-05-23T00:54:24;94470.41;;;13.24;100.00
68889;BME280;55930;47.412;8.790;2023-05-23T00:57:46;94467.03;;;13.24;100.00
68889;BME280;55930;47.412;8.790;2023-05-23T01:01:07;94468.50;;;13.30;100.00
68889;BME280;55930;47.412;8.790;2023-05-23T01:04:30;94470.19;;;13.28;100.00
68889;BME280;55930;47.412;8.790;2023-05-23T01:07:53;94473.38;;;13.32;100.00
68889;BME280;55930;47.412;8.790;2023-05-23T01:11:23;94471.78;;;13.09;100.00
68889;BME280;55930;47.412;8.790;2023-05-23T01:18:32;94464.13;;;13.27;100.00
68889;BME280;55930;47.412;8.790;2023-05-23T01:21:59;94458.59;;;13.36;100.00
68889;BME280;55930;47.412;8.790;2023-05-23T01:29:11;94460.19;;;13.17;100.00
68889;BME280;55930;47.412;8.790;2023-05-23T01:32:36;94462.16;;;13.17;100.00
68889;BME280;55930;47.412;8.790;2023-05-23T01:36:00;94464.25;;;13.07;100.00
68889;BME280;55930;47.412;8.790;2023-05-23T01:39:23;94477.16;;;13.14;100.00
68889;BME280;55930;47.412;8.790;2023-05-23T01:42:44;94466.50;;;13.20;100.00
68889;BME280;55930;47.412;8.790;2023-05-23T01:46:06;94466.53;;;13.25;100.00
68889;BME280;55930;47.412;8.790;2023-05-23T01:49:27;94462.78;;;13.06;100.00
68889;BME280;55930;47.412;8.790;2023-05-23T01:52:49;94465.16;;;12.98;100.00
68889;BME280;55930;47.412;8.790;2023-05-23T01:56:09;94467.56;;;12.96;100.00
68889;BME280;55930;47.412;8.790;2023-05-23T01:59:30;94467.66;;;13.08;100.00
68889;BME280;55930;47.412;8.790;2023-05-23T02:02:50;94469.66;;;13.18;100.00
68889;BME280;55930;47.412;8.790;2023-05-23T02:06:11;94473.09;;;13.24;100.00
68889;BME280;55930;47.412;8.790;2023-05-23T02:09:31;94460.97;;;13.23;100.00
68889;BME280;55930;47.412;8.790;2023-05-23T02:12:52;94465.59;;;13.34;100.00
68889;BME280;55930;47.412;8.790;2023-05-23T02:16:12;94471.91;;;13.31;100.00
68889;BME280;55930;47.412;8.790;2023-05-23T02:19:33;94467.03;;;13.29;100.00
68889;BME280;55930;47.412;8.790;2023-05-23T02:22:53;94469.44;;;13.27;100.00
68889;BME280;55930;47.412;8.790;2023-05-23T02:26:13;94468.78;;;13.44;100.00
68889;BME280;55930;47.412;8.790;2023-05-23T02:29:34;94459.88;;;13.52;100.00
68889;BME280;55930;47.412;8.790;2023-05-23T02:32:55;94469.53;;;13.50;100.00
68889;BME280;55930;47.412;8.790;2023-05-23T02:36:18;94478.25;;;13.45;100.00
68889;BME280;55930;47.412;8.790;2023-05-23T02:39:39;94483.38;;;13.48;100.00
68889;BME280;55930;47.412;8.790;2023-05-23T02:42:59;94477.25;;;13.42;100.00
68889;BME280;55930;47.412;8.790;2023-05-23T02:46:19;94479.69;;;13.40;100.00
68889;BME280;55930;47.412;8.790;2023-05-23T02:49:40;94477.22;;;13.31;100.00
68889;BME280;55930;47.412;8.790;2023-05-23T02:53:00;94487.38;;;13.27;100.00
68889;BME280;55930;47.412;8.790;2023-05-23T02:56:21;94486.44;;;13.35;100.00
68889;BME280;55930;47.412;8.790;2023-05-23T02:59:41;94479.44;;;13.44;100.00
68889;BME280;55930;47.412;8.790;2023-05-23T03:03:02;94489.38;;;13.37;100.00
68889;BME280;55930;47.412;8.790;2023-05-23T03:06:22;94492.78;;;13.44;100.00
68889;BME280;55930;47.412;8.790;2023-05-23T03:09:43;94492.97;;;13.34;100.00
68889;BME280;55930;47.412;8.790;2023-05-23T03:13:03;94492.97;;;13.34;100.00
68889;BME280;55930;47.412;8.790;2023-05-23T03:16:26;94488.63;;;13.37;100.00
68889;BME280;55930;47.412;8.790;2023-05-23T03:19:46;94490.09;;;13.32;100.00
68889;BME280;55930;47.412;8.790;2023-05-23T03:23:06;94494.72;;;13.43;100.00
68889;BME280;55930;47.412;8.790;2023-05-23T03:26:27;94495.47;;;13.49;100.00
68889;BME280;55930;47.412;8.790;2023-05-23T03:29:47;94498.16;;;13.55;100.00
68889;BME280;55930;47.412;8.790;2023-05-23T03:33:08;94498.03;;;13.27;100.00
68889;BME280;55930;47.412;8.790;2023-05-23T03:36:29;94499.44;;;13.17;100.00
68889;BME280;55930;47.412;8.790;2023-05-23T03:39:52;94500.47;;;13.25;100.00
68889;BME280;55930;47.412;8.790;2023-05-23T03:43:12;94496.81;;;13.28;100.00
68889;BME280;55930;47.412;8.790;2023-05-23T03:46:33;94494.19;;;13.33;100.00
68889;BME280;55930;47.412;8.790;2023-05-23T03:49:53;94504.09;;;13.33;100.00
68889;BME280;55930;47.412;8.790;2023-05-23T03:53:13;94499.03;;;13.35;100.00
68889;BME280;55930;47.412;8.790;2023-05-23T03:56:34;94508.56;;;13.47;100.00
68889;BME280;55930;47.412;8.790;2023-05-23T03:59:54;94510.97;;;13.51;100.00
68889;BME280;55930;47.412;8.790;2023-05-23T04:03:15;94522.44;;;13.62;100.00
68889;BME280;55930;47.412;8.790;2023-05-23T04:06:36;94517.63;;;13.72;100.00
68889;BME280;55930;47.412;8.790;2023-05-23T04:09:57;94523.16;;;13.68;100.00
68889;BME280;55930;47.412;8.790;2023-05-23T04:13:17;94514.88;;;13.55;100.00
68889;BME280;55930;47.412;8.790;2023-05-23T04:16:38;94523.28;;;13.43;100.00
68889;BME280;55930;47.412;8.790;2023-05-23T04:20:04;94515.34;;;13.54;100.00
68889;BME280;55930;47.412;8.790;2023-05-23T04:23:25;94514.69;;;13.64;100.00
68889;BME280;55930;47.412;8.790;2023-05-23T04:26:46;94521.25;;;13.69;100.00
68889;BME280;55930;47.412;8.790;2023-05-23T04:30:07;94512.81;;;13.87;100.00
68889;BME280;55930;47.412;8.790;2023-05-23T04:33:29;94520.13;;;14.03;100.00
68889;BME280;55930;47.412;8.790;2023-05-23T04:36:49;94524.28;;;14.15;100.00
68889;BME280;55930;47.412;8.790;2023-05-23T04:40:10;94527.22;;;14.29;100.00
68889;BME280;55930;47.412;8.790;2023-05-23T04:43:32;94530.41;;;14.38;100.00
68889;BME280;55930;47.412;8.790;2023-05-23T04:46:52;94524.84;;;14.53;100.00
68889;BME280;55930;47.412;8.790;2023-05-23T04:50:15;94531.13;;;14.39;100.00
68889;BME280;55930;47.412;8.790;2023-05-23T04:53:36;94528.19;;;14.37;100.00
68889;BME280;55930;47.412;8.790;2023-05-23T04:56:56;94536.00;;;14.46;100.00
68889;BME280;55930;47.412;8.790;2023-05-23T05:00:20;94543.78;;;14.66;100.00
68889;BME280;55930;47.412;8.790;2023-05-23T05:03:41;94540.41;;;14.66;100.00
68889;BME280;55930;47.412;8.790;2023-05-23T05:07:01;94537.47;;;14.58;100.00
68889;BME280;55930;47.412;8.790;2023-05-23T05:10:23;94544.75;;;14.52;100.00
68889;BME280;55930;47.412;8.790;2023-05-23T05:13:45;94540.13;;;14.69;100.00
68889;BME280;55930;47.412;8.790;2023-05-23T05:17:08;94543.56;;;14.75;100.00
68889;BME280;55930;47.412;8.790;2023-05-23T05:20:32;94548.41;;;14.88;100.00
68889;BME280;55930;47.412;8.790;2023-05-23T05:23:52;94544.78;;;14.91;100.00
68889;BME280;55930;47.412;8.790;2023-05-23T05:27:13;94548.63;;;15.12;100.00
68889;BME280;55930;47.412;8.790;2023-05-23T05:30:36;94543.78;;;15.16;100.00
68889;BME280;55930;47.412;8.790;2023-05-23T05:33:58;94545.91;;;15.35;100.00
68889;BME280;55930;47.412;8.790;2023-05-23T05:37:18;94538.13;;;15.53;100.00
68889;BME280;55930;47.412;8.790;2023-05-23T05:40:41;94537.78;;;15.85;100.00
68889;BME280;55930;47.412;8.790;2023-05-23T05:44:01;94538.44;;;15.96;100.00
68889;BME280;55930;47.412;8.790;2023-05-23T05:47:22;94541.06;;;16.07;100.00
68889;BME280;55930;47.412;8.790;2023-05-23T05:50:42;94536.41;;;16.19;100.00
68889;BME280;55930;47.412;8.790;2023-05-23T05:54:04;94544.03;;;16.04;100.00
68889;BME280;55930;47.412;8.790;2023-05-23T05:57:24;94550.75;;;16.16;100.00
68889;BME280;55930;47.412;8.790;2023-05-23T06:00:45;94558.50;;;16.25;100.00
68889;BME280;55930;47.412;8.790;2023-05-23T06:04:06;94562.94;;;16.53;100.00
68889;BME280;55930;47.412;8.790;2023-05-23T06:07:26;94557.63;;;16.47;100.00
68889;BME280;55930;47.412;8.790;2023-05-23T06:10:46;94555.31;;;16.73;100.00
68889;BME280;55930;47.412;8.790;2023-05-23T06:14:07;94554.13;;;17.53;100.00
68889;BME280;55930;47.412;8.790;2023-05-23T06:17:28;94559.25;;;17.75;100.00
68889;BME280;55930;47.412;8.790;2023-05-23T06:20:48;94562.59;;;17.57;100.00
68889;BME280;55930;47.412;8.790;2023-05-23T06:24:09;94561.03;;;17.91;100.00
68889;BME280;55930;47.412;8.790;2023-05-23T06:27:32;94561.31;;;17.88;100.00
68889;BME280;55930;47.412;8.790;2023-05-23T06:30:53;94559.16;;;18.61;100.00
68889;BME280;55930;47.412;8.790;2023-05-23T06:34:13;94557.44;;;18.64;100.00
68889;BME280;55930;47.412;8.790;2023-05-23T06:37:34;94561.13;;;18.93;100.00
68889;BME280;55930;47.412;8.790;2023-05-23T06:40:59;94563.84;;;19.51;100.00
68889;BME280;55930;47.412;8.790;2023-05-23T06:44:21;94563.25;;;19.13;100.00
68889;BME280;55930;47.412;8.790;2023-05-23T06:47:47;94558.41;;;19.25;100.00
68889;BME280;55930;47.412;8.790;2023-05-23T06:51:08;94565.34;;;19.33;100.00
68889;BME280;55930;47.412;8.790;2023-05-23T06:54:29;94568.31;;;19.03;100.00
68889;BME280;55930;47.412;8.790;2023-05-23T06:57:50;94567.22;;;18.61;100.00
68889;BME280;55930;47.412;8.790;2023-05-23T07:01:11;94572.19;;;18.89;100.00
68889;BME280;55930;47.412;8.790;2023-05-23T07:04:31;94576.81;;;18.57;100.00
68889;BME280;55930;47.412;8.790;2023-05-23T07:07:54;94576.94;;;18.83;100.00
68889;BME280;55930;47.412;8.790;2023-05-23T07:11:14;94573.53;;;18.83;100.00
68889;BME280;55930;47.412;8.790;2023-05-23T07:14:35;94576.66;;;18.12;100.00
68889;BME280;55930;47.412;8.790;2023-05-23T07:17:57;94583.69;;;18.71;100.00
68889;BME280;55930;47.412;8.790;2023-05-23T07:21:20;94577.94;;;19.12;100.00
68889;BME280;55930;47.412;8.790;2023-05-23T07:24:40;94590.56;;;20.02;100.00
68889;BME280;55930;47.412;8.790;2023-05-23T07:28:01;94587.38;;;20.84;100.00
68889;BME280;55930;47.412;8.790;2023-05-23T07:31:21;94594.41;;;19.67;100.00
68889;BME280;55930;47.412;8.790;2023-05-23T07:34:42;94601.03;;;19.21;100.00
68889;BME280;55930;47.412;8.790;2023-05-23T07:38:02;94609.47;;;18.80;100.00
68889;BME280;55930;47.412;8.790;2023-05-23T07:41:23;94602.47;;;18.58;100.00
68889;BME280;55930;47.412;8.790;2023-05-23T07:44:44;94603.91;;;18.59;100.00
68889;BME280;55930;47.412;8.790;2023-05-23T07:48:05;94602.28;;;18.88;100.00
68889;BME280;55930;47.412;8.790;2023-05-23T07:51:25;94612.59;;;18.27;100.00
68889;BME280;55930;47.412;8.790;2023-05-23T07:54:46;94612.59;;;18.46;100.00
68889;BME280;55930;47.412;8.790;2023-05-23T07:58:06;94618.47;;;18.26;100.00
68889;BME280;55930;47.412;8.790;2023-05-23T08:01:27;94611.88;;;18.27;100.00
68889;BME280;55930;47.412;8.790;2023-05-23T08:04:47;94615.72;;;18.88;100.00
68889;BME280;55930;47.412;8.790;2023-05-23T08:08:07;94616.41;;;19.07;100.00
68889;BME280;55930;47.412;8.790;2023-05-23T08:11:28;94618.31;;;19.25;100.00
68889;BME280;55930;47.412;8.790;2023-05-23T08:14:49;94624.66;;;18.96;100.00
68889;BME280;55930;47.412;8.790;2023-05-23T08:18:12;94618.25;;;18.24;100.00
68889;BME280;55930;47.412;8.790;2023-05-23T08:21:34;94607.88;;;18.33;100.00
68889;BME280;55930;47.412;8.790;2023-05-23T08:24:55;94610.84;;;19.50;100.00
68889;BME280;55930;47.412;8.790;2023-05-23T08:28:15;94618.13;;;19.95;100.00
68889;BME280;55930;47.412;8.790;2023-05-23T08:31:36;94619.63;;;20.90;100.00
68889;BME280;55930;47.412;8.790;2023-05-23T08:34:56;94623.25;;;22.04;91.61
68889;BME280;55930;47.412;8.790;2023-05-23T08:38:17;94622.16;;;24.16;81.92
68889;BME280;55930;47.412;8.790;2023-05-23T08:41:41;94620.72;;;25.35;67.68
68889;BME280;55930;47.412;8.790;2023-05-23T08:45:01;94623.31;;;23.06;78.18
68889;BME280;55930;47.412;8.790;2023-05-23T08:48:23;94624.97;;;23.55;75.36
68889;BME280;55930;47.412;8.790;2023-05-23T08:51:46;94618.91;;;22.01;81.96
68889;BME280;55930;47.412;8.790;2023-05-23T08:55:10;94628.84;;;22.06;82.11
68889;BME280;55930;47.412;8.790;2023-05-23T08:58:34;94627.53;;;24.46;75.57
68889;BME280;55930;47.412;8.790;2023-05-23T09:01:55;94631.75;;;24.72;67.18
68889;BME280;55930;47.412;8.790;2023-05-23T09:05:19;94626.75;;;23.22;74.68
68889;BME280;55930;47.412;8.790;2023-05-23T09:08:40;94627.59;;;24.16;71.26
68889;BME280;55930;47.412;8.790;2023-05-23T09:12:04;94622.97;;;26.74;62.01
68889;BME280;55930;47.412;8.790;2023-05-23T09:15:25;94614.38;;;27.58;52.05
68889;BME280;55930;47.412;8.790;2023-05-23T09:18:46;94613.97;;;25.19;61.42
68889;BME280;55930;47.412;8.790;2023-05-23T09:22:07;94620.75;;;24.62;62.26
68889;BME280;55930;47.412;8.790;2023-05-23T09:25:28;94624.66;;;26.25;58.55
68889;BME280;55930;47.412;8.790;2023-05-23T09:28:50;94622.91;;;25.78;57.85
68889;BME280;55930;47.412;8.790;2023-05-23T09:32:14;94618.38;;;29.21;47.88
68889;BME280;55930;47.412;8.790;2023-05-23T09:35:35;94607.53;;;30.16;45.81
68889;BME280;55930;47.412;8.790;2023-05-23T09:38:55;94607.38;;;29.92;46.27
68889;BME280;55930;47.412;8.790;2023-05-23T09:42:22;94614.88;;;26.05;52.57
68889;BME280;55930;47.412;8.790;2023-05-23T09:45:42;94607.47;;;25.39;58.27
68889;BME280;55930;47.412;8.790;2023-05-23T09:49:14;94602.22;;;27.88;49.80
68889;BME280;55930;47.412;8.790;2023-05-23T09:52:38;94607.78;;;26.71;51.10
68889;BME280;55930;47.412;8.790;2023-05-23T09:56:01;94597.66;;;28.77;49.99
68889;BME280;55930;47.412;8.790;2023-05-23T09:59:22;94603.84;;;30.44;46.40
68889;BME280;55930;47.412;8.790;2023-05-23T10:06:27;94602.78;;;29.43;49.82
68889;BME280;55930;47.412;8.790;2023-05-23T10:09:54;94595.09;;;28.22;47.71
68889;BME280;55930;47.412;8.790;2023-05-23T10:13:15;94594.53;;;28.33;51.30
68889;BME280;55930;47.412;8.790;2023-05-23T10:16:57;94591.38;;;28.36;45.50
68889;BME280;55930;47.412;8.790;2023-05-23T10:20:24;94594.25;;;28.38;46.52
68889;BME280;55930;47.412;8.790;2023-05-23T10:23:46;94588.03;;;27.34;48.08
68889;BME280;55930;47.412;8.790;2023-05-23T10:27:07;94585.13;;;26.24;53.41
68889;BME280;55930;47.412;8.790;2023-05-23T10:30:31;94582.88;;;25.62;55.15
68889;BME280;55930;47.412;8.790;2023-05-23T10:33:55;94590.38;;;25.88;55.82
68889;BME280;55930;47.412;8.790;2023-05-23T10:37:34;94585.91;;;24.51;61.17
68889;BME280;55930;47.412;8.790;2023-05-23T10:44:37;94585.22;;;24.43;63.30
68889;BME280;55930;47.412;8.790;2023-05-23T10:47:58;94581.84;;;24.67;60.45
68889;BME280;55930;47.412;8.790;2023-05-23T10:51:20;94580.16;;;28.13;50.25
68889;BME280;55930;47.412;8.790;2023-05-23T10:54:43;94567.72;;;27.54;48.10
68889;BME280;55930;47.412;8.790;2023-05-23T10:58:19;94576.41;;;24.67;58.95
68889;BME280;55930;47.412;8.790;2023-05-23T11:01:42;94567.34;;;25.72;56.13
68889;BME280;55930;47.412;8.790;2023-05-23T11:05:18;94570.75;;;24.48;60.62
68889;BME280;55930;47.412;8.790;2023-05-23T11:08:43;94561.72;;;27.56;55.20
68889;BME280;55930;47.412;8.790;2023-05-23T11:12:06;94562.91;;;25.84;57.63
68889;BME280;55930;47.412;8.790;2023-05-23T11:15:26;94554.34;;;24.31;61.49
68889;BME280;55930;47.412;8.790;2023-05-23T11:18:47;94549.84;;;23.63;66.14
68889;BME280;55930;47.412;8.790;2023-05-23T11:22:08;94541.84;;;23.80;68.26
68889;BME280;55930;47.412;8.790;2023-05-23T11:25:49;94544.63;;;23.35;66.97
68889;BME280;55930;47.412;8.790;2023-05-23T11:29:10;94550.56;;;23.10;67.80
68889;BME280;55930;47.412;8.790;2023-05-23T11:32:30;94546.88;;;22.55;68.18
68889;BME280;55930;47.412;8.790;2023-05-23T11:35:51;94552.09;;;25.76;56.52
68889;BME280;55930;47.412;8.790;2023-05-23T11:39:12;94540.69;;;28.33;47.77
68889;BME280;55930;47.412;8.790;2023-05-23T11:42:33;94539.97;;;28.92;52.02
68889;BME280;55930;47.412;8.790;2023-05-23T11:46:07;94532.94;;;30.27;42.93
68889;BME280;55930;47.412;8.790;2023-05-23T11:49:33;94525.44;;;29.94;40.03
68889;BME280;55930;47.412;8.790;2023-05-23T11:52:54;94518.22;;;29.35;41.26
68889;BME280;55930;47.412;8.790;2023-05-23T11:56:14;94518.53;;;26.96;43.91
68889;BME280;55930;47.412;8.790;2023-05-23T11:59:36;94517.84;;;27.06;49.21
68889;BME280;55930;47.412;8.790;2023-05-23T12:02:57;94527.00;;;25.26;56.17
68889;BME280;55930;47.412;8.790;2023-05-23T12:06:20;94521.66;;;24.61;59.72
68889;BME280;55930;47.412;8.790;2023-05-23T12:09:43;94521.50;;;23.41;61.04
68889;BME280;55930;47.412;8.790;2023-05-23T12:13:04;94504.88;;;23.60;60.67
68889;BME280;55930;47.412;8.790;2023-05-23T12:16:26;94519.91;;;23.08;71.44
68889;BME280;55930;47.412;8.790;2023-05-23T12:19:48;94517.00;;;23.36;67.30
68889;BME280;55930;47.412;8.790;2023-05-23T12:23:17;94514.84;;;23.19;68.28
68889;BME280;55930;47.412;8.790;2023-05-23T12:26:56;94508.84;;;22.60;71.40
68889;BME280;55930;47.412;8.790;2023-05-23T12:30:19;94504.41;;;22.19;71.81
68889;BME280;55930;47.412;8.790;2023-05-23T12:33:40;94510.94;;;21.88;80.20
68889;BME280;55930;47.412;8.790;2023-05-23T12:37:04;94534.50;;;20.81;78.21
68889;BME280;55930;47.412;8.790;2023-05-23T12:40:27;94532.66;;;20.08;78.97
68889;BME280;55930;47.412;8.790;2023-05-23T12:43:52;94538.91;;;18.92;77.29
68889;BME280;55930;47.412;8.790;2023-05-23T12:47:12;94533.69;;;18.49;83.31
68889;BME280;55930;47.412;8.790;2023-05-23T12:50:34;94553.63;;;17.97;84.38
68889;BME280;55930;47.412;8.790;2023-05-23T12:53:55;94555.09;;;18.36;84.66
68889;BME280;55930;47.412;8.790;2023-05-23T12:57:18;94570.31;;;17.90;91.71
68889;BME280;55930;47.412;8.790;2023-05-23T13:00:38;94571.69;;;17.78;95.57
68889;BME280;55930;47.412;8.790;2023-05-23T13:03:59;94581.06;;;17.90;100.00
68889;BME280;55930;47.412;8.790;2023-05-23T13:07:21;94588.97;;;17.29;100.00
68889;BME280;55930;47.412;8.790;2023-05-23T13:10:41;94601.09;;;16.70;100.00
68889;BME280;55930;47.412;8.790;2023-05-23T13:14:02;94594.81;;;16.62;100.00
68889;BME280;55930;47.412;8.790;2023-05-23T13:17:23;94596.34;;;16.52;100.00
68889;BME280;55930;47.412;8.790;2023-05-23T13:20:43;94589.47;;;16.56;100.00
68889;BME280;55930;47.412;8.790;2023-05-23T13:24:04;94587.25;;;16.60;100.00
68889;BME280;55930;47.412;8.790;2023-05-23T13:27:25;94589.03;;;16.46;100.00
68889;BME280;55930;47.412;8.790;2023-05-23T13:30:45;94573.31;;;16.32;100.00
68889;BME280;55930;47.412;8.790;2023-05-23T13:34:08;94575.75;;;16.30;100.00
68889;BME280;55930;47.412;8.790;2023-05-23T13:37:28;94572.88;;;16.22;100.00
68889;BME280;55930;47.412;8.790;2023-05-23T13:40:49;94578.22;;;16.22;100.00
68889;BME280;55930;47.412;8.790;2023-05-23T13:44:10;94577.56;;;16.11;100.00
68889;BME280;55930;47.412;8.790;2023-05-23T13:47:31;94578.47;;;16.24;100.00
68889;BME280;55930;47.412;8.790;2023-05-23T13:50:51;94575.56;;;15.53;100.00
68889;BME280;55930;47.412;8.790;2023-05-23T13:54:12;94580.75;;;15.98;100.00
68889;BME280;55930;47.412;8.790;2023-05-23T13:57:35;94583.66;;;16.11;100.00
68889;BME280;55930;47.412;8.790;2023-05-23T14:00:55;94582.63;;;16.14;100.00
68889;BME280;55930;47.412;8.790;2023-05-23T14:04:16;94584.41;;;16.00;100.00
68889;BME280;55930;47.412;8.790;2023-05-23T14:07:36;94575.34;;;16.15;100.00
68889;BME280;55930;47.412;8.790;2023-05-23T14:10:57;94570.72;;;16.15;100.00
68889;BME280;55930;47.412;8.790;2023-05-23T14:14:20;94575.94;;;16.37;100.00
68889;BME280;55930;47.412;8.790;2023-05-23T14:17:41;94573.81;;;16.71;100.00
68889;BME280;55930;47.412;8.790;2023-05-23T14:21:01;94566.84;;;17.23;100.00
68889;BME280;55930;47.412;8.790;2023-05-23T14:24:24;94560.81;;;17.41;100.00
68889;BME280;55930;47.412;8.790;2023-05-23T14:27:44;94559.97;;;17.51;100.00
68889;BME280;55930;47.412;8.790;2023-05-23T14:31:05;94566.91;;;17.90;100.00
68889;BME280;55930;47.412;8.790;2023-05-23T14:34:27;94576.66;;;18.12;100.00
68889;BME280;55930;47.412;8.790;2023-05-23T14:37:50;94577.88;;;18.86;100.00
68889;BME280;55930;47.412;8.790;2023-05-23T14:41:12;94578.09;;;18.13;100.00
68889;BME280;55930;47.412;8.790;2023-05-23T14:44:33;94582.53;;;18.29;100.00
68889;BME280;55930;47.412;8.790;2023-05-23T14:47:53;94578.19;;;18.82;100.00
68889;BME280;55930;47.412;8.790;2023-05-23T14:51:13;94575.25;;;19.12;100.00
68889;BME280;55930;47.412;8.790;2023-05-23T14:54:34;94572.19;;;18.89;100.00
68889;BME280;55930;47.412;8.790;2023-05-23T14:57:54;94575.78;;;19.69;100.00
68889;BME280;55930;47.412;8.790;2023-05-23T15:01:15;94574.31;;;19.81;100.00
68889;BME280;55930;47.412;8.790;2023-05-23T15:04:37;94569.16;;;19.25;100.00
68889;BME280;55930;47.412;8.790;2023-05-23T15:08:00;94570.91;;;19.54;100.00
68889;BME280;55930;47.412;8.790;2023-05-23T15:11:23;94569.72;;;21.17;100.00
68889;BME280;55930;47.412;8.790;2023-05-23T15:14:44;94569.84;;;20.91;100.00
68889;BME280;55930;47.412;8.790;2023-05-23T15:18:05;94566.28;;;21.17;98.85
68889;BME280;55930;47.412;8.790;2023-05-23T15:21:28;94559.69;;;20.84;97.98
68889;BME280;55930;47.412;8.790;2023-05-23T15:24:49;94553.78;;;20.51;96.43
68889;BME280;55930;47.412;8.790;2023-05-23T15:28:09;94549.88;;;22.36;89.83
68889;BME280;55930;47.412;8.790;2023-05-23T15:31:30;94549.75;;;21.69;91.80
68889;BME280;55930;47.412;8.790;2023-05-23T15:34:50;94552.31;;;22.70;85.59
68889;BME280;55930;47.412;8.790;2023-05-23T15:38:10;94544.44;;;23.25;84.07
68889;BME280;55930;47.412;8.790;2023-05-23T15:41:31;94542.78;;;22.84;87.22
68889;BME280;55930;47.412;8.790;2023-05-23T15:44:51;94544.56;;;22.59;85.06
68889;BME280;55930;47.412;8.790;2023-05-23T15:48:12;94545.88;;;23.26;80.94
68889;BME280;55930;47.412;8.790;2023-05-23T15:51:32;94554.00;;;23.41;79.43
68889;BME280;55930;47.412;8.790;2023-05-23T15:54:52;94543.34;;;22.16;85.19
68889;BME280;55930;47.412;8.790;2023-05-23T15:58:13;94547.25;;;21.43;92.50
68889;BME280;55930;47.412;8.790;2023-05-23T16:01:34;94553.38;;;21.02;90.56
68889;BME280;55930;47.412;8.790;2023-05-23T16:04:54;94548.38;;;21.84;89.13
68889;BME280;55930;47.412;8.790;2023-05-23T16:08:16;94555.38;;;21.79;86.84
68889;BME280;55930;47.412;8.790;2023-05-23T16:11:37;94551.69;;;22.33;85.67
68889;BME280;55930;47.412;8.790;2023-05-23T16:14:57;94554.13;;;21.80;84.03
68889;BME280;55930;47.412;8.790;2023-05-23T16:18:17;94554.56;;;21.35;89.04
68889;BME280;55930;47.412;8.790;2023-05-23T16:21:38;94539.22;;;21.87;84.57
68889;BME280;55930;47.412;8.790;2023-05-23T16:24:59;94548.63;;;21.36;87.65
68889;BME280;55930;47.412;8.790;2023-05-23T16:28:20;94541.41;;;20.90;88.15
68889;BME280;55930;47.412;8.790;2023-05-23T16:31:40;94546.25;;;20.50;90.16
68889;BME280;55930;47.412;8.790;2023-05-23T16:35:03;94536.47;;;20.81;88.56
68889;BME280;55930;47.412;8.790;2023-05-23T16:38:24;94542.31;;;20.72;90.57
68889;BME280;55930;47.412;8.790;2023-05-23T16:41:44;94544.31;;;21.13;88.46
68889;BME280;55930;47.412;8.790;2023-05-23T16:45:05;94541.66;;;20.99;89.97
68889;BME280;55930;47.412;8.790;2023-05-23T16:48:26;94539.94;;;21.10;89.20
68889;BME280;55930;47.412;8.790;2023-05-23T16:51:46;94529.25;;;20.08;94.83
68889;BME280;55930;47.412;8.790;2023-05-23T16:55:07;94534.66;;;19.95;94.98
68889;BME280;55930;47.412;8.790;2023-05-23T16:58:27;94544.78;;;20.02;93.80
68889;BME280;55930;47.412;8.790;2023-05-23T17:01:47;94545.75;;;19.65;95.08
68889;BME280;55930;47.412;8.790;2023-05-23T17:05:08;94541.19;;;19.73;96.33
68889;BME280;55930;47.412;8.790;2023-05-23T17:08:28;94549.66;;;19.64;98.09
68889;BME280;55930;47.412;8.790;2023-05-23T17:11:49;94549.00;;;19.18;98.44
68889;BME280;55930;47.412;8.790;2023-05-23T17:15:10;94544.13;;;19.17;99.24
68889;BME280;55930;47.412;8.790;2023-05-23T17:18:33;94544.44;;;19.13;99.22
68889;BME280;55930;47.412;8.790;2023-05-23T17:21:54;94543.22;;;18.82;100.00
68889;BME280;55930;47.412;8.790;2023-05-23T17:25:15;94531.16;;;18.89;100.00
68889;BME280;55930;47.412;8.790;2023-05-23T17:28:36;94534.81;;;18.72;100.00
68889;BME280;55930;47.412;8.790;2023-05-23T17:31:57;94525.69;;;18.44;100.00
68889;BME280;55930;47.412;8.790;2023-05-23T17:35:19;94527.53;;;18.35;100.00
68889;BME280;55930;47.412;8.790;2023-05-23T17:38:39;94524.44;;;18.45;100.00
68889;BME280;55930;47.412;8.790;2023-05-23T17:42:00;94529.06;;;17.93;100.00
68889;BME280;55930;47.412;8.790;2023-05-23T17:45:21;94526.13;;;18.29;100.00
68889;BME280;55930;47.412;8.790;2023-05-23T17:48:41;94530.34;;;18.06;100.00
68889;BME280;55930;47.412;8.790;2023-05-23T17:52:02;94544.78;;;17.84;100.00